Time;durP1;ratioP1;P1;durP2;ratioP2;P2;SDS_P1;SDS_P2;PMS_P1;PMS_P2;Temp;Humidity;BMP_temperature;BMP_pressure;BME280_temperature;BME280_humidity;BME280_pressure;Samples;Min_cycle;Max_cycle;Signal;HPM_P1;HPM_P2
2022/04/01 00:00:58;;;;;;;9.57;8.67;;;;;;;0.26;100.00;100080.38;5317766;28;20093;-74
2022/04/01 00:03:30;;;;;;;8.57;7.30;;;;;;;0.24;100.00;100093.19;5319675;27;20164;-74
2022/04/01 00:06:01;;;;;;;8.70;7.70;;;;;;;0.23;100.00;100091.44;5299502;28;20038;-73
2022/04/01 00:08:32;;;;;;;8.50;7.03;;;;;;;0.20;100.00;100095.66;5300157;28;20032;-73
2022/04/01 00:11:04;;;;;;;8.40;6.93;;;;;;;0.23;100.00;100093.16;5319170;28;20024;-72
2022/04/01 00:13:35;;;;;;;7.03;6.13;;;;;;;0.22;100.00;100099.09;5316562;28;20176;-73
2022/04/01 00:16:06;;;;;;;9.27;6.53;;;;;;;0.20;100.00;100104.22;5304338;28;20059;-74
2022/04/01 00:18:38;;;;;;;6.70;6.00;;;;;;;0.05;100.00;100101.34;5305990;28;20135;-74
2022/04/01 00:21:10;;;;;;;7.47;6.77;;;;;;;0.07;100.00;100107.38;5330677;27;20123;-74
2022/04/01 00:23:41;;;;;;;6.47;5.77;;;;;;;0.11;100.00;100106.59;5310490;28;20035;-74
2022/04/01 00:26:12;;;;;;;7.20;6.27;;;;;;;0.02;100.00;100108.97;5318695;28;20023;-74
2022/04/01 00:28:44;;;;;;;7.90;6.50;;;;;;;0.04;100.00;100112.44;5305954;28;20044;-74
2022/04/01 00:31:15;;;;;;;7.93;5.47;;;;;;;0.02;100.00;100108.97;5298058;28;20138;-75
2022/04/01 00:33:46;;;;;;;6.60;5.40;;;;;;;-0.03;100.00;100109.75;5309528;28;20513;-74
2022/04/01 00:36:18;;;;;;;7.90;5.77;;;;;;;-0.12;100.00;100119.81;5318943;28;20635;-74
2022/04/01 00:38:49;;;;;;;5.93;5.17;;;;;;;-0.15;100.00;100116.34;5305957;28;20115;-74
2022/04/01 00:41:20;;;;;;;6.77;5.47;;;;;;;-0.16;100.00;100118.06;5297630;28;20024;-74
2022/04/01 00:44:14;;;;;;;6.50;5.40;;;;;;;-0.19;100.00;100126.53;5309302;28;20050;-71
2022/04/01 00:46:48;;;;;;;7.15;5.72;;;;;;;-0.25;100.00;100133.22;5316835;28;20058;-72
2022/04/01 00:49:21;;;;;;;7.75;5.28;;;;;;;-0.22;100.00;100138.41;5297973;28;20051;-72
2022/04/01 00:51:55;;;;;;;7.35;6.30;;;;;;;-0.30;100.00;100139.97;5295323;28;20492;-74
2022/04/01 00:54:26;;;;;;;8.98;6.32;;;;;;;-0.28;100.00;100135.72;5317394;28;20039;-73
2022/04/01 00:56:59;;;;;;;7.00;6.13;;;;;;;-0.19;100.00;100143.59;5318874;28;20032;-72
2022/04/01 00:59:30;;;;;;;7.28;6.32;;;;;;;-0.34;100.00;100139.00;5297128;28;20361;-72
2022/04/01 01:02:03;;;;;;;8.60;7.10;;;;;;;-0.33;100.00;100142.44;5296706;28;20115;-73
2022/04/01 01:04:35;;;;;;;;;;;;;;;-0.23;100.00;100141.78;5317198;28;20112;-74
2022/04/01 01:07:06;;;;;;;6.55;5.72;;;;;;;-0.26;100.00;100146.84;5314165;27;19920;-72
2022/04/01 01:09:38;;;;;;;6.20;5.60;;;;;;;-0.31;100.00;100145.91;5296770;28;20024;-73
2022/04/01 01:12:11;;;;;;;7.47;6.07;;;;;;;-0.33;100.00;100143.31;5299907;28;20096;-72
2022/04/01 01:14:44;;;;;;;7.28;5.85;;;;;;;-0.27;100.00;100143.44;5314685;28;20498;-72
2022/04/01 01:17:15;;;;;;;;;;;;;;;-0.24;100.00;100145.19;5296759;28;20028;-73
2022/04/01 01:19:46;;;;;;;6.13;5.18;;;;;;;-0.34;100.00;100148.41;5298981;28;20005;-73
2022/04/01 01:22:18;;;;;;;8.87;5.33;;;;;;;-0.31;100.00;100143.34;5317741;28;20146;-73
2022/04/01 01:24:49;;;;;;;6.63;5.50;;;;;;;-0.33;100.00;100138.19;5315079;28;20038;-73
2022/04/01 01:27:21;;;;;;;6.73;5.33;;;;;;;-0.39;100.00;100146.63;5296773;28;20032;-73
2022/04/01 01:29:53;;;;;;;7.03;5.55;;;;;;;-0.29;100.00;100145.13;5298553;28;20036;-72
2022/04/01 01:32:24;;;;;;;6.57;5.10;;;;;;;-0.29;100.00;100141.66;5317337;28;20043;-73
2022/04/01 01:34:56;;;;;;;7.63;5.27;;;;;;;-0.38;100.00;100148.31;5314948;28;20051;-73
2022/04/01 01:37:28;;;;;;;7.82;5.30;;;;;;;-0.39;100.00;100148.28;5296338;28;20391;-72
2022/04/01 01:39:59;;;;;;;8.07;5.83;;;;;;;-0.45;100.00;100141.34;5298253;28;20031;-72
2022/04/01 01:42:31;;;;;;;6.67;5.23;;;;;;;-0.44;100.00;100143.06;5317258;28;20110;-73
2022/04/01 01:45:04;;;;;;;7.70;5.63;;;;;;;-0.34;100.00;100149.25;5315411;28;20113;-73
2022/04/01 01:47:35;;;;;;;6.93;5.03;;;;;;;-0.38;100.00;100150.88;5298682;28;20023;-73
2022/04/01 01:55:47;;;;;;;7.28;5.38;;;;;;;-0.51;100.00;100153.16;5309843;28;20395;-72
2022/04/01 01:58:18;;;;;;;7.73;5.77;;;;;;;-0.47;100.00;100157.50;5297113;28;20032;-73
2022/04/01 02:00:50;;;;;;;7.23;6.00;;;;;;;-0.45;100.00;100156.72;5302363;28;20486;-72
2022/04/01 02:03:21;;;;;;;9.43;6.17;;;;;;;-0.52;100.00;100159.97;5316258;28;20440;-72
2022/04/01 02:05:52;;;;;;;8.37;6.53;;;;;;;-0.53;100.00;100160.81;5297777;28;20157;-73
2022/04/01 02:08:24;;;;;;;7.70;6.23;;;;;;;-0.51;100.00;100168.53;5295819;28;20024;-72
2022/04/01 02:10:56;;;;;;;7.53;6.27;;;;;;;-0.50;100.00;100165.13;5314043;28;20080;-74
2022/04/01 02:13:29;;;;;;;8.32;6.82;;;;;;;-0.52;100.00;100154.84;5317179;28;20993;-74
2022/04/01 02:16:01;;;;;;;8.18;5.85;;;;;;;-0.49;100.00;100161.75;5300869;28;20103;-74
2022/04/01 02:18:32;;;;;;;7.60;6.07;;;;;;;-0.50;100.00;100166.00;5299981;28;20032;-73
2022/04/01 02:21:10;;;;;;;7.57;6.13;;;;;;;-0.48;100.00;100169.44;5318242;28;20038;-73
2022/04/01 02:23:44;;;;;;;8.02;6.18;;;;;;;-0.46;100.00;100175.47;5319463;28;20122;-72
2022/04/01 02:26:16;;;;;;;7.68;6.57;;;;;;;-0.46;100.00;100172.91;5300086;28;20520;-72
2022/04/01 02:28:47;;;;;;;6.27;5.47;;;;;;;-0.31;100.00;100181.75;5301190;28;20036;-72
2022/04/01 02:31:19;;;;;;;7.67;6.30;;;;;;;-0.38;100.00;100178.19;5321199;28;20130;-72
2022/04/01 02:33:50;;;;;;;9.00;6.43;;;;;;;-0.45;100.00;100187.44;5319221;28;20039;-72
2022/04/01 02:36:22;;;;;;;6.60;5.90;;;;;;;-0.41;100.00;100183.25;5299971;28;20144;-73
2022/04/01 02:38:53;;;;;;;7.57;6.43;;;;;;;-0.38;100.00;100194.41;5300753;28;20079;-74
2022/04/01 02:41:25;;;;;;;7.17;6.30;;;;;;;-0.39;100.00;100194.38;5320969;28;20031;-73
2022/04/01 02:44:08;;;;;;;6.97;5.67;;;;;;;-0.34;100.00;100197.91;5319090;28;20106;-73
2022/04/01 02:46:43;;;;;;;6.88;5.75;;;;;;;-0.40;100.00;100196.09;5299359;28;20047;-73
2022/04/01 02:49:16;;;;;;;6.45;5.68;;;;;;;-0.39;100.00;100208.06;5303348;28;20092;-73
2022/04/01 02:51:47;;;;;;;9.20;7.22;;;;;;;-0.39;100.00;100204.63;5320542;28;20047;-73
2022/04/01 02:54:20;;;;;;;8.53;5.97;;;;;;;-0.43;100.00;100202.84;5315731;28;20028;-74
2022/04/01 02:56:52;;;;;;;6.85;6.15;;;;;;;-0.42;100.00;100218.25;5299541;28;20028;-73
2022/04/01 02:59:24;;;;;;;6.97;5.77;;;;;;;-0.47;100.00;100212.13;5303919;28;20054;-73
2022/04/01 03:01:55;;;;;;;7.28;6.05;;;;;;;-0.56;100.00;100214.50;5320369;28;20123;-73
2022/04/01 03:04:27;;;;;;;7.27;6.40;;;;;;;-0.54;100.00;100217.09;5315427;28;20064;-73
2022/04/01 03:06:58;;;;;;;7.28;6.45;;;;;;;-0.56;100.00;100223.03;5299165;28;20035;-72
2022/04/01 03:09:30;;;;;;;7.43;6.63;;;;;;;-0.54;100.00;100228.19;5303190;28;20032;-73
2022/04/01 03:12:02;;;;;;;8.73;7.37;;;;;;;-0.58;100.00;100226.38;5320271;28;20028;-72
2022/04/01 03:14:33;;;;;;;8.40;6.40;;;;;;;-0.51;100.00;100223.16;5316123;28;20111;-73
2022/04/01 03:17:04;;;;;;;7.73;6.77;;;;;;;-0.52;100.00;100231.66;5299037;28;20052;-73
2022/04/01 03:19:39;;;;;;;9.53;7.10;;;;;;;-0.51;100.00;100223.16;5302172;28;20036;-72
2022/04/01 03:22:10;;;;;;;10.23;7.90;;;;;;;-0.58;100.00;100231.50;5319739;28;20130;-73
2022/04/01 03:24:42;;;;;;;9.97;8.40;;;;;;;-0.51;100.00;100233.41;5310470;28;20139;-73
2022/04/01 03:27:13;;;;;;;8.10;7.30;;;;;;;-0.50;100.00;100232.56;5298393;28;20036;-74
2022/04/01 03:29:45;;;;;;;9.80;8.63;;;;;;;-0.54;100.00;100235.88;5307530;28;20036;-73
2022/04/01 03:32:16;;;;;;;9.57;8.63;;;;;;;-0.49;100.00;100247.09;5319721;28;20031;-74
2022/04/01 03:34:48;;;;;;;10.97;9.87;;;;;;;-0.54;100.00;100243.56;5310794;28;20481;-73
2022/04/01 03:37:19;;;;;;;10.57;9.47;;;;;;;-0.58;100.00;100249.41;5298599;28;20552;-73
2022/04/01 03:39:51;;;;;;;10.23;9.10;;;;;;;-0.61;100.00;100250.22;5304957;28;20104;-74
2022/04/01 03:42:22;;;;;;;14.40;10.37;;;;;;;-0.58;100.00;100254.53;5319914;28;20111;-73
2022/04/01 03:44:53;;;;;;;10.57;9.23;;;;;;;-0.65;100.00;100250.13;5306220;28;20040;-72
2022/04/01 03:47:40;;;;;;;11.40;10.30;;;;;;;-0.64;100.00;100252.72;5298462;28;20145;-73
2022/04/01 03:50:15;;;;;;;11.98;9.70;;;;;;;-0.63;100.00;100251.91;5312760;28;20043;-72
2022/04/01 03:52:47;;;;;;;12.32;10.07;;;;;;;-0.59;100.00;100257.94;5308142;28;20519;-73
2022/04/01 03:55:20;;;;;;;10.85;9.35;;;;;;;-0.54;100.00;100263.19;5298133;28;20034;-73
2022/04/01 03:57:55;;;;;;;9.82;8.82;;;;;;;-0.64;100.00;100265.50;5308293;28;20032;-73
2022/04/01 04:00:27;;;;;;;10.00;8.90;;;;;;;-0.66;100.00;100274.88;5319533;28;20042;-73
2022/04/01 04:02:59;;;;;;;10.43;9.27;;;;;;;-0.68;100.00;100273.94;5308164;28;20059;-74
2022/04/01 04:05:32;;;;;;;11.20;9.02;;;;;;;-0.69;100.00;100268.78;5298541;28;20044;-72
2022/04/01 04:08:07;;;;;;;11.52;9.40;;;;;;;-0.69;100.00;100282.47;5307923;28;20118;-73
2022/04/01 04:10:38;;;;;;;10.60;9.50;;;;;;;-0.71;100.00;100275.56;5319238;28;20149;-74
2022/04/01 04:13:12;;;;;;;12.20;9.17;;;;;;;-0.75;100.00;100283.16;5308124;28;20111;-72
2022/04/01 04:15:51;;;;;;;10.70;9.00;;;;;;;-0.74;100.00;100295.13;5297967;28;20024;-73
2022/04/01 04:18:29;;;;;;;10.60;9.50;;;;;;;-0.75;100.00;100290.84;5309037;28;20036;-73
2022/04/01 04:21:31;;;;;;;10.23;9.23;;;;;;;-0.72;100.00;100295.19;5318900;28;20032;-74
2022/04/01 04:24:06;;;;;;;11.82;8.95;;;;;;;-0.75;100.00;100293.41;5272926;28;20196;-75
2022/04/01 04:26:47;;;;;;;10.10;9.10;;;;;;;-0.74;100.00;100300.25;5272877;28;20031;-76
2022/04/01 04:29:19;;;;;;;9.85;8.35;;;;;;;-0.65;100.00;100306.44;5252750;28;20036;-74
2022/04/01 04:32:02;;;;;;;10.27;8.73;;;;;;;-0.65;100.00;100309.84;5254879;28;20096;-74
2022/04/01 04:34:38;;;;;;;10.77;9.10;;;;;;;-0.68;100.00;100306.34;5273425;28;20467;-74
2022/04/01 04:37:11;;;;;;;11.70;9.15;;;;;;;-0.69;100.00;100314.84;5268516;28;20040;-74
2022/04/01 04:39:43;;;;;;;10.20;8.68;;;;;;;-0.73;100.00;100325.00;5252231;28;20021;-74
2022/04/01 04:42:15;;;;;;;10.10;7.77;;;;;;;-0.70;100.00;100321.66;5257044;28;20032;-74
2022/04/01 04:44:48;;;;;;;11.68;9.43;;;;;;;-0.73;100.00;100337.81;5269687;28;20436;-74
2022/04/01 04:47:29;;;;;;;10.52;8.80;;;;;;;-0.66;100.00;100335.41;5268571;28;20098;-74
2022/04/01 04:50:02;;;;;;;11.45;9.00;;;;;;;-0.65;100.00;100339.72;5252437;28;20033;-74
2022/04/01 04:52:34;;;;;;;12.02;9.32;;;;;;;-0.65;100.00;100343.13;5257872;28;20032;-74
2022/04/01 04:55:11;;;;;;;10.63;8.65;;;;;;;-0.62;100.00;100345.75;5258340;28;20130;-74
2022/04/01 04:57:44;;;;;;;10.50;8.43;;;;;;;-0.67;100.00;100356.72;5251828;28;20104;-74
2022/04/01 05:00:21;;;;;;;9.82;8.50;;;;;;;-0.61;100.00;100357.75;5281973;28;20403;-75
2022/04/01 05:03:19;;;;;;;13.05;9.13;;;;;;;-0.65;100.00;100367.88;5318121;28;20027;-74
2022/04/01 05:05:53;;;;;;;9.70;8.55;;;;;;;-0.66;100.00;100368.69;5317990;28;20050;-74
2022/04/01 05:08:48;;;;;;;12.32;9.50;;;;;;;-0.70;100.00;100374.56;5318067;28;20023;-75
2022/04/01 05:11:25;;;;;;;10.05;9.05;;;;;;;-0.70;100.00;100387.38;5316049;28;20466;-72
2022/04/01 05:14:32;;;;;;;12.05;8.82;;;;;;;-0.70;100.00;100389.94;5317793;28;20069;-73
2022/04/01 05:17:04;;;;;;;9.15;8.25;;;;;;;-0.70;100.00;100390.78;5230760;28;20184;-75
2022/04/01 05:19:38;;;;;;;;;;;;;;;-0.64;100.00;100392.66;5231610;28;20416;-75
2022/04/01 05:22:10;;;;;;;9.73;8.48;;;;;;;-0.71;100.00;100390.75;5230780;28;20331;-75
2022/04/01 05:24:48;;;;;;;12.70;10.47;;;;;;;-0.70;100.00;100397.59;5230974;28;20120;-75
2022/04/01 05:27:24;;;;;;;12.05;9.98;;;;;;;-0.70;100.00;100402.72;5230909;28;20702;-74
2022/04/01 05:30:16;;;;;;;17.13;12.73;;;;;;;-0.69;100.00;100402.75;5230726;28;20489;-76
2022/04/01 05:32:54;;;;;;;58.90;45.45;;;;;;;-0.69;100.00;100407.88;5231048;28;20033;-76
2022/04/01 05:35:29;;;;;;;32.13;28.70;;;;;;;-0.71;100.00;100409.50;5230863;28;20048;-74
2022/04/01 05:38:01;;;;;;;15.77;14.07;;;;;;;-0.68;100.00;100411.31;5230873;28;20056;-74
2022/04/01 05:40:32;;;;;;;10.10;8.65;;;;;;;-0.66;100.00;100417.31;5229878;28;20469;-74
2022/04/01 05:43:04;;;;;;;11.80;7.97;;;;;;;-0.72;100.00;100418.03;5231030;28;20044;-74
2022/04/01 05:45:38;;;;;;;12.45;9.30;;;;;;;-0.69;100.00;100441.16;5230247;28;20085;-74
2022/04/01 05:48:11;;;;;;;8.68;7.43;;;;;;;-0.68;100.00;100437.75;5230337;28;20474;-73
2022/04/01 05:50:45;;;;;;;9.60;7.50;;;;;;;-0.75;100.00;100436.72;5230196;28;20038;-74
2022/04/01 05:53:17;;;;;;;10.60;7.70;;;;;;;-0.69;100.00;100443.72;5298074;28;20494;-74
2022/04/01 05:55:51;;;;;;;10.60;8.20;;;;;;;-0.68;100.00;100453.13;5316638;28;20046;-74
2022/04/01 05:58:22;;;;;;;12.10;9.30;;;;;;;-0.69;100.00;100455.63;5317046;28;20387;-74
2022/04/01 06:00:54;;;;;;;11.40;7.53;;;;;;;-0.70;100.00;100457.34;5317337;28;20035;-74
2022/04/01 06:03:47;;;;;;;12.03;8.37;;;;;;;-0.69;100.00;100469.31;5316991;28;20135;-74
2022/04/01 06:06:32;;;;;;;10.13;8.20;;;;;;;-0.67;100.00;100466.81;5316908;28;20047;-75
2022/04/01 06:09:17;;;;;;;10.95;7.70;;;;;;;-0.69;100.00;100466.75;5316786;28;20056;-74
2022/04/01 06:12:06;;;;;;;12.68;7.55;;;;;;;-0.63;100.00;100487.41;5316284;28;20028;-73
2022/04/01 06:15:01;;;;;;;9.70;7.22;;;;;;;-0.62;100.00;100481.44;5316787;28;20043;-73
2022/04/01 06:17:51;;;;;;;9.90;7.43;;;;;;;-0.62;100.00;100491.69;5316717;28;20039;-72
2022/04/01 06:20:26;;;;;;;8.60;6.70;;;;;;;-0.66;100.00;100497.56;5317443;28;20844;-74
2022/04/01 06:23:30;;;;;;;9.25;6.88;;;;;;;-0.66;100.00;100500.13;5317215;28;20406;-73
2022/04/01 06:26:02;;;;;;;11.35;6.97;;;;;;;-0.67;100.00;100507.75;5230276;28;20091;-73
2022/04/01 06:28:41;;;;;;;9.52;6.82;;;;;;;-0.64;100.00;100515.53;5229947;28;20041;-73
2022/04/01 06:31:12;;;;;;;8.77;6.93;;;;;;;-0.63;100.00;100513.00;5230500;28;20045;-75
2022/04/01 06:34:11;;;;;;;9.07;6.43;;;;;;;-0.55;100.00;100515.75;5230219;28;20441;-74
2022/04/01 06:36:50;;;;;;;8.48;6.13;;;;;;;-0.68;100.00;100518.81;5230001;28;20046;-75
2022/04/01 06:39:45;;;;;;;9.77;6.25;;;;;;;-0.63;100.00;100538.63;5230169;28;20444;-74
2022/04/01 06:42:20;;;;;;;8.45;6.85;;;;;;;-0.61;100.00;100542.06;5230428;28;20067;-74
2022/04/01 06:44:51;;;;;;;8.48;6.63;;;;;;;-0.61;100.00;100536.06;5230012;28;20404;-74
2022/04/01 06:47:22;;;;;;;8.07;6.43;;;;;;;-0.64;100.00;100548.81;5230331;28;20030;-73
2022/04/01 06:49:54;;;;;;;6.60;5.63;;;;;;;-0.65;100.00;100552.19;5229881;28;20133;-73
2022/04/01 06:52:26;;;;;;;11.73;6.47;;;;;;;-0.65;100.00;100558.16;5229814;28;20139;-74
2022/04/01 06:54:58;;;;;;;7.32;5.85;;;;;;;-0.66;100.00;100550.44;5229890;28;20048;-74
2022/04/01 06:57:29;;;;;;;9.43;6.20;;;;;;;-0.63;100.00;100564.22;5229865;28;20185;-73
2022/04/01 07:00:00;;;;;;;6.70;5.60;;;;;;;-0.66;99.70;100560.66;5229233;28;20091;-76
2022/04/01 07:02:32;;;;;;;8.07;6.13;;;;;;;-0.62;99.23;100559.94;5265934;28;20447;-75
2022/04/01 07:05:03;;;;;;;9.33;6.17;;;;;;;-0.65;99.23;100568.41;5320736;28;20098;-75
2022/04/01 07:07:35;;;;;;;7.80;5.30;;;;;;;-0.65;99.44;100568.41;5320435;28;20031;-73
2022/04/01 07:10:10;;;;;;;10.40;6.20;;;;;;;-0.61;99.49;100574.47;5320169;28;20382;-73
2022/04/01 07:12:41;;;;;;;6.45;4.97;;;;;;;-0.49;98.24;100581.66;5319984;28;20031;-74
2022/04/01 07:15:13;;;;;;;7.67;5.37;;;;;;;-0.55;98.36;100579.78;5320270;28;20032;-74
2022/04/01 07:17:44;;;;;;;7.72;5.20;;;;;;;-0.51;98.66;100571.38;5320487;28;20106;-75
2022/04/01 07:20:16;;;;;;;7.27;5.37;;;;;;;-0.45;98.83;100586.03;5320397;28;20058;-75
2022/04/01 07:22:48;;;;;;;9.63;5.97;;;;;;;-0.45;98.69;100578.34;5320333;28;20031;-74
2022/04/01 07:25:22;;;;;;;8.60;5.45;;;;;;;-0.39;98.03;100586.22;5320124;28;20039;-74
2022/04/01 07:27:57;;;;;;;6.30;4.32;;;;;;;-0.37;97.98;100599.94;5320129;28;20070;-74
2022/04/01 07:30:28;;;;;;;7.30;5.15;;;;;;;-0.39;97.91;100597.34;5319420;28;20028;-74
2022/04/01 07:33:00;;;;;;;10.13;5.87;;;;;;;-0.36;97.80;100601.66;5319739;28;20035;-73
2022/04/01 07:35:34;;;;;;;5.83;4.23;;;;;;;-0.31;97.64;100606.91;5319390;28;20042;-73
2022/04/01 07:38:05;;;;;;;8.10;4.82;;;;;;;-0.29;96.58;100607.81;5319152;28;20142;-73
2022/04/01 07:40:37;;;;;;;11.00;5.50;;;;;;;-0.26;96.76;100618.16;5319606;28;20378;-73
2022/04/01 07:43:09;;;;;;;6.50;4.50;;;;;;;-0.21;96.56;100620.03;5319502;28;20083;-73
2022/04/01 07:45:40;;;;;;;11.48;5.30;;;;;;;-0.22;96.34;100620.84;5319251;28;20406;-73
2022/04/01 07:48:12;;;;;;;7.63;5.33;;;;;;;-0.25;96.43;100631.00;5319277;28;20020;-73
2022/04/01 07:50:43;;;;;;;7.43;5.00;;;;;;;-0.25;96.24;100633.56;5319359;28;20072;-74
2022/04/01 07:53:16;;;;;;;5.53;4.30;;;;;;;-0.23;95.81;100634.47;5319628;28;20181;-73
2022/04/01 07:55:49;;;;;;;8.38;4.60;;;;;;;-0.22;96.01;100630.25;5319109;28;20067;-74
2022/04/01 07:58:21;;;;;;;6.28;4.78;;;;;;;-0.17;95.56;100633.78;5319332;28;20067;-74
2022/04/01 08:00:52;;;;;;;5.88;4.47;;;;;;;-0.19;95.69;100631.19;5318408;28;20099;-75
2022/04/01 08:03:24;;;;;;;7.13;4.57;;;;;;;-0.19;96.08;100636.31;5319358;28;20084;-76
2022/04/01 08:05:55;;;;;;;9.20;4.83;;;;;;;-0.19;95.59;100643.16;5319356;28;20044;-74
2022/04/01 08:08:27;;;;;;;6.20;4.30;;;;;;;-0.19;95.12;100644.00;5318937;28;20424;-73
2022/04/01 08:10:58;;;;;;;7.83;4.17;;;;;;;-0.17;95.66;100653.44;5319041;28;20023;-72
2022/04/01 08:13:29;;;;;;;7.47;4.83;;;;;;;-0.23;95.14;100654.13;5317780;28;20434;-73
2022/04/01 08:16:01;;;;;;;6.40;4.43;;;;;;;-0.11;94.80;100656.16;5319303;28;20042;-74
2022/04/01 08:18:32;;;;;;;5.30;4.40;;;;;;;-0.15;95.71;100665.44;5318724;28;20122;-74
2022/04/01 08:21:04;;;;;;;8.77;5.30;;;;;;;-0.16;95.59;100670.53;5319063;28;20035;-74
2022/04/01 08:23:36;;;;;;;9.57;5.07;;;;;;;-0.17;94.96;100673.94;5319108;28;20027;-73
2022/04/01 08:26:08;;;;;;;8.73;4.47;;;;;;;-0.18;94.71;100670.47;5317694;28;20047;-73
2022/04/01 08:28:40;;;;;;;7.53;4.13;;;;;;;-0.15;95.39;100679.97;5319141;28;20073;-72
2022/04/01 08:31:11;;;;;;;5.80;4.13;;;;;;;-0.12;95.64;100682.63;5319112;28;20490;-74
2022/04/01 08:33:43;;;;;;;7.93;4.10;;;;;;;0.01;95.18;100691.53;5318413;28;20019;-73
2022/04/01 08:36:15;;;;;;;8.00;4.43;;;;;;;0.01;95.59;100696.66;5317672;28;20027;-73
2022/04/01 08:38:48;;;;;;;6.45;3.97;;;;;;;-0.06;94.80;100687.91;5318331;28;20349;-75
2022/04/01 08:41:21;;;;;;;10.13;4.90;;;;;;;0.05;94.89;100701.03;5318586;28;20024;-73
2022/04/01 08:43:53;;;;;;;6.40;4.55;;;;;;;-0.02;94.58;100711.13;5318271;28;20032;-73
2022/04/01 08:46:24;;;;;;;7.47;4.33;;;;;;;0.06;93.88;100718.16;5318525;28;20074;-74
2022/04/01 08:48:56;;;;;;;13.50;4.73;;;;;;;0.12;93.96;100723.47;5318302;28;20031;-73
2022/04/01 08:51:28;;;;;;;6.80;4.13;;;;;;;0.07;93.11;100714.78;5318412;28;20070;-74
2022/04/01 08:54:00;;;;;;;;;;;;;;;0.19;92.76;100725.34;5318587;28;20089;-73
2022/04/01 08:56:32;;;;;;;5.20;3.42;;;;;;;0.22;92.08;100719.47;5318044;28;19922;-74
2022/04/01 08:59:03;;;;;;;5.37;3.80;;;;;;;0.22;92.50;100734.84;5318407;28;20068;-74
2022/04/01 09:01:45;;;;;;;6.83;3.40;;;;;;;0.29;90.85;100736.72;5318413;28;20059;-74
2022/04/01 09:04:23;;;;;;;6.20;2.72;;;;;;;0.30;91.20;100748.75;5317496;28;20031;-73
2022/04/01 09:06:54;;;;;;;5.60;2.90;;;;;;;0.31;90.09;100742.81;5318237;28;20034;-73
2022/04/01 09:09:28;;;;;;;4.77;3.13;;;;;;;0.44;90.35;100741.44;5329134;28;20514;-74
2022/04/01 09:12:17;;;;;;;5.28;2.80;;;;;;;0.51;90.07;100741.63;5316557;28;20050;-72
2022/04/01 09:14:51;;;;;;;5.07;3.15;;;;;;;0.47;89.31;100751.78;5317701;28;20067;-73
2022/04/01 09:17:38;;;;;;;6.00;3.28;;;;;;;0.60;89.07;100759.00;5318135;28;20031;-73
2022/04/01 09:20:10;;;;;;;4.72;3.17;;;;;;;0.60;89.07;100755.56;5317494;28;20160;-73
2022/04/01 09:22:43;;;;;;;5.70;3.92;;;;;;;0.62;89.47;100762.47;5317951;28;20040;-73
2022/04/01 09:25:18;;;;;;;4.50;3.20;;;;;;;0.76;88.96;100759.38;5317508;28;20110;-73
2022/04/01 09:27:52;;;;;;;7.38;3.17;;;;;;;0.81;88.79;100760.41;5318075;28;20035;-73
2022/04/01 09:30:28;;;;;;;5.82;3.65;;;;;;;0.91;87.96;100765.78;5317718;28;20119;-73
2022/04/01 09:33:02;;;;;;;5.05;3.17;;;;;;;0.99;87.58;100763.44;5317250;28;20055;-73
2022/04/01 09:35:33;;;;;;;6.50;3.33;;;;;;;1.05;87.21;100768.72;5316620;28;20031;-73
2022/04/01 09:38:05;;;;;;;5.50;3.10;;;;;;;1.17;86.87;100770.72;5317722;28;20024;-74
2022/04/01 09:40:37;;;;;;;5.10;3.35;;;;;;;1.26;87.05;100777.81;5317120;28;20026;-72
2022/04/01 09:43:09;;;;;;;4.60;3.17;;;;;;;1.40;87.12;100785.84;5316018;28;20039;-73
2022/04/01 09:45:40;;;;;;;5.60;3.33;;;;;;;1.49;86.82;100780.94;5317171;28;20086;-73
2022/04/01 09:48:16;;;;;;;5.47;2.97;;;;;;;1.28;86.21;100776.16;5317241;28;20035;-73
2022/04/01 09:50:56;;;;;;;2.92;2.20;;;;;;;1.26;85.16;100780.38;5316779;28;20039;-74
2022/04/01 09:53:28;;;;;;;6.20;2.80;;;;;;;1.34;85.77;100778.00;5316917;28;20031;-75
2022/04/01 09:56:00;;;;;;;5.77;3.10;;;;;;;1.30;85.76;100781.31;5317058;28;20042;-74
2022/04/01 09:58:32;;;;;;;3.97;2.60;;;;;;;1.36;85.91;100784.91;5316412;28;20023;-73
2022/04/01 10:01:06;;;;;;;5.82;2.80;;;;;;;1.34;85.67;100788.28;5317004;28;20277;-74
2022/04/01 10:03:37;;;;;;;5.03;2.58;;;;;;;1.26;85.12;100781.25;5317021;28;20088;-75
2022/04/01 10:06:10;;;;;;;3.00;2.17;;;;;;;1.32;85.15;100783.13;5315898;28;20027;-73
2022/04/01 10:08:42;;;;;;;4.35;2.40;;;;;;;1.35;84.53;100787.44;5317367;28;20324;-75
2022/04/01 10:11:14;;;;;;;5.37;2.67;;;;;;;1.36;85.63;100789.19;5316441;28;20074;-74
2022/04/01 10:13:46;;;;;;;4.17;1.97;;;;;;;1.38;85.67;100784.94;5316505;28;20658;-74
2022/04/01 10:16:19;;;;;;;5.97;2.85;;;;;;;1.37;84.91;100791.78;5316539;28;20130;-73
2022/04/01 10:18:54;;;;;;;5.80;3.47;;;;;;;1.38;85.78;100793.50;5316699;28;20035;-74
2022/04/01 10:21:26;;;;;;;3.38;2.63;;;;;;;1.37;85.48;100796.03;5316228;28;20101;-74
2022/04/01 10:24:06;;;;;;;5.47;2.60;;;;;;;1.40;85.53;100798.69;5317145;28;20039;-74
2022/04/01 10:26:45;;;;;;;4.32;2.20;;;;;;;1.35;85.21;100796.00;5316538;28;20080;-73
2022/04/01 10:29:18;;;;;;;4.18;2.22;;;;;;;1.34;84.87;100799.41;5316980;28;20035;-74
2022/04/01 10:31:54;;;;;;;6.28;2.47;;;;;;;1.38;85.61;100793.50;5316618;28;20031;-74
2022/04/01 10:34:25;;;;;;;3.72;2.50;;;;;;;1.52;85.59;100798.13;5316117;28;20483;-74
2022/04/01 10:37:00;;;;;;;5.83;2.80;;;;;;;1.47;85.65;100792.88;5318669;28;20154;-75
2022/04/01 10:39:46;;;;;;;3.85;2.42;;;;;;;1.52;84.27;100800.72;5320783;28;20356;-74
2022/04/01 10:42:23;;;;;;;4.55;2.33;;;;;;;1.54;84.72;100794.75;5320415;28;20059;-74
2022/04/01 10:44:56;;;;;;;3.70;2.65;;;;;;;1.52;85.11;100791.28;5320577;28;20117;-73
2022/04/01 10:53:45;;;;;;;9.68;3.70;;;;;;;1.48;84.38;100807.44;5320562;28;20031;-73
2022/04/01 10:56:25;;;;;;;5.45;3.38;;;;;;;1.52;84.43;100810.97;5320439;28;20165;-73
2022/04/01 10:59:14;;;;;;;6.35;3.20;;;;;;;1.52;84.67;100810.97;5320165;28;20480;-74
2022/04/01 11:01:51;;;;;;;5.47;3.58;;;;;;;1.57;84.01;100817.09;5320255;28;20059;-75
2022/04/01 11:04:27;;;;;;;4.97;3.25;;;;;;;1.48;83.62;100819.44;5320466;28;20465;-75
2022/04/01 11:07:02;;;;;;;6.35;4.88;;;;;;;1.56;84.71;100817.91;5320419;28;20026;-74
2022/04/01 11:09:38;;;;;;;7.97;5.13;;;;;;;1.61;84.88;100819.78;5320531;28;20035;-73
2022/04/01 11:12:15;;;;;;;7.80;3.42;;;;;;;1.63;83.92;100824.97;5320638;27;20451;-75
2022/04/01 11:15:12;;;;;;;5.93;3.38;;;;;;;1.64;83.34;100836.97;5319805;28;20035;-73
2022/04/01 11:17:43;;;;;;;8.98;3.75;;;;;;;1.59;83.70;100829.13;5319932;28;20031;-74
2022/04/01 11:20:26;;;;;;;10.33;4.50;;;;;;;1.68;84.07;100831.06;5320387;28;20027;-75
2022/04/01 11:22:59;;;;;;;10.98;7.93;;;;;;;1.62;83.51;100831.78;5320467;28;20023;-76
2022/04/01 11:25:33;;;;;;;12.93;7.05;;;;;;;1.68;83.96;100831.06;5319832;28;20051;-74
2022/04/01 11:28:08;;;;;;;10.45;6.55;;;;;;;1.74;81.95;100832.91;5319819;28;20042;-76
2022/04/01 11:30:40;;;;;;;9.25;4.70;;;;;;;1.55;82.83;100836.75;5319962;28;20023;-76
2022/04/01 11:33:19;;;;;;;9.70;5.83;;;;;;;1.67;82.97;100836.19;5319546;28;20116;-75
2022/04/01 11:35:57;;;;;;;13.50;6.00;;;;;;;1.65;83.23;100848.97;5319747;28;20398;-76
2022/04/01 11:38:30;;;;;;;8.00;5.43;;;;;;;1.64;83.50;100837.84;5319269;28;20023;-75
2022/04/01 11:41:03;;;;;;;;;;;;;;;1.87;83.60;100837.53;5319997;28;20551;-74
2022/04/01 11:43:35;;;;;;;6.25;4.10;;;;;;;1.72;82.09;100840.56;5320247;28;19916;-76
2022/04/01 11:46:07;;;;;;;13.10;9.70;;;;;;;1.76;83.36;100841.53;5319259;28;20114;-73
2022/04/01 11:48:46;;;;;;;45.40;30.77;;;;;;;1.70;83.02;100844.81;5319542;28;20406;-76
2022/04/01 11:51:19;;;;;;;11.27;5.55;;;;;;;1.69;83.38;100839.66;5319845;27;20153;-76
2022/04/01 11:53:52;;;;;;;23.05;13.68;;;;;;;1.84;83.92;100841.75;5319431;28;20059;-75
2022/04/01 11:56:27;;;;;;;13.05;8.95;;;;;;;1.86;84.14;100843.50;5318688;28;20522;-75
2022/04/01 11:59:04;;;;;;;11.68;8.25;;;;;;;1.80;83.51;100838.19;5319230;28;20080;-72
2022/04/01 12:01:54;;;;;;;10.93;6.75;;;;;;;1.72;84.71;100832.00;5319486;28;20197;-77
2022/04/01 12:04:26;;;;;;;14.07;9.27;;;;;;;1.70;83.76;100847.41;5319206;28;20023;-77
2022/04/01 12:09:49;;;;;;;7.47;4.90;;;;;;;1.58;84.50;100850.53;5319534;28;20028;-75